sensor_id;sensor_type;location;lat;lon;timestamp;pressure;altitude;pressure_sealevel;temperature;humidity
34297;BME280;20564;42.902;25.336;2024-03-02T00:01:34;96695.56;;;8.35;87.58
34297;BME280;20564;42.902;25.336;2024-03-02T00:04:03;96708.44;;;8.38;87.37
34297;BME280;20564;42.902;25.336;2024-03-02T00:06:30;96709.13;;;8.40;87.26
34297;BME280;20564;42.902;25.336;2024-03-02T00:08:58;96702.94;;;8.41;86.79
34297;BME280;20564;42.902;25.336;2024-03-02T00:11:25;96699.19;;;8.44;86.54
34297;BME280;20564;42.902;25.336;2024-03-02T00:13:54;96689.09;;;8.39;86.57
34297;BME280;20564;42.902;25.336;2024-03-02T00:16:21;96689.94;;;8.40;86.69
34297;BME280;20564;42.902;25.336;2024-03-02T00:18:48;96693.25;;;8.42;86.67
34297;BME280;20564;42.902;25.336;2024-03-02T00:21:15;96692.97;;;8.45;85.82
34297;BME280;20564;42.902;25.336;2024-03-02T00:23:48;96689.38;;;8.46;86.28
34297;BME280;20564;42.902;25.336;2024-03-02T00:26:18;96688.00;;;8.42;86.41
34297;BME280;20564;42.902;25.336;2024-03-02T00:28:45;96685.81;;;8.37;86.84
34297;BME280;20564;42.902;25.336;2024-03-02T00:31:13;96688.84;;;8.42;86.50
34297;BME280;20564;42.902;25.336;2024-03-02T00:33:41;96686.06;;;8.34;86.54
34297;BME280;20564;42.902;25.336;2024-03-02T00:36:10;96689.34;;;8.36;86.73
34297;BME280;20564;42.902;25.336;2024-03-02T00:38:49;96689.38;;;8.27;87.13
34297;BME280;20564;42.902;25.336;2024-03-02T00:41:29;96689.22;;;8.28;87.53
34297;BME280;20564;42.902;25.336;2024-03-02T00:46:29;96686.59;;;8.18;87.85
34297;BME280;20564;42.902;25.336;2024-03-02T00:48:59;96685.50;;;8.21;88.06
34297;BME280;20564;42.902;25.336;2024-03-02T00:51:29;96685.22;;;8.24;87.95
34297;BME280;20564;42.902;25.336;2024-03-02T00:53:59;96677.22;;;8.35;88.05
34297;BME280;20564;42.902;25.336;2024-03-02T00:56:26;96678.59;;;8.30;87.95
34297;BME280;20564;42.902;25.336;2024-03-02T00:58:53;96683.84;;;8.20;88.40
34297;BME280;20564;42.902;25.336;2024-03-02T01:01:21;96681.66;;;8.15;88.92
34297;BME280;20564;42.902;25.336;2024-03-02T01:03:48;96680.53;;;8.18;89.50
34297;BME280;20564;42.902;25.336;2024-03-02T01:06:18;96678.06;;;8.16;89.12
34297;BME280;20564;42.902;25.336;2024-03-02T01:08:45;96679.16;;;8.24;89.06
34297;BME280;20564;42.902;25.336;2024-03-02T01:11:14;96675.28;;;8.18;89.43
34297;BME280;20564;42.902;25.336;2024-03-02T01:13:41;96669.50;;;8.24;89.94
34297;BME280;20564;42.902;25.336;2024-03-02T01:16:08;96675.53;;;8.15;89.88
34297;BME280;20564;42.902;25.336;2024-03-02T01:18:35;96665.91;;;8.06;90.31
34297;BME280;20564;42.902;25.336;2024-03-02T01:21:02;96660.78;;;8.14;90.86
34297;BME280;20564;42.902;25.336;2024-03-02T01:23:29;96672.53;;;8.10;90.27
34297;BME280;20564;42.902;25.336;2024-03-02T01:25:56;96675.00;;;8.02;90.88
34297;BME280;20564;42.902;25.336;2024-03-02T01:28:23;96662.84;;;8.01;91.51
34297;BME280;20564;42.902;25.336;2024-03-02T01:30:50;96661.88;;;8.11;91.22
34297;BME280;20564;42.902;25.336;2024-03-02T01:33:17;96660.94;;;8.03;91.05
34297;BME280;20564;42.902;25.336;2024-03-02T01:35:45;96664.09;;;7.96;91.37
34297;BME280;20564;42.902;25.336;2024-03-02T01:38:12;96666.16;;;8.03;91.34
34297;BME280;20564;42.902;25.336;2024-03-02T01:40:39;96668.09;;;8.01;91.56
34297;BME280;20564;42.902;25.336;2024-03-02T01:43:07;96664.66;;;8.10;91.04
34297;BME280;20564;42.902;25.336;2024-03-02T01:45:35;96654.03;;;8.11;90.63
34297;BME280;20564;42.902;25.336;2024-03-02T01:48:04;96660.38;;;7.99;91.96
34297;BME280;20564;42.902;25.336;2024-03-02T01:50:32;96658.72;;;7.98;91.80
34297;BME280;20564;42.902;25.336;2024-03-02T01:53:00;96657.06;;;7.97;91.82
34297;BME280;20564;42.902;25.336;2024-03-02T01:55:31;96655.69;;;8.03;91.84
34297;BME280;20564;42.902;25.336;2024-03-02T01:58:00;96663.16;;;7.97;92.00
34297;BME280;20564;42.902;25.336;2024-03-02T02:00:27;96659.56;;;7.98;92.04
34297;BME280;20564;42.902;25.336;2024-03-02T02:02:54;96649.91;;;7.99;92.03
34297;BME280;20564;42.902;25.336;2024-03-02T02:05:22;96654.31;;;7.98;92.03
34297;BME280;20564;42.902;25.336;2024-03-02T02:07:57;96642.72;;;8.01;92.01
34297;BME280;20564;42.902;25.336;2024-03-02T02:10:25;96659.69;;;8.07;90.98
34297;BME280;20564;42.902;25.336;2024-03-02T02:12:52;96657.19;;;7.95;91.87
34297;BME280;20564;42.902;25.336;2024-03-02T02:15:29;96656.25;;;7.87;92.11
34297;BME280;20564;42.902;25.336;2024-03-02T02:17:58;96651.66;;;7.89;92.87
34297;BME280;20564;42.902;25.336;2024-03-02T02:20:29;96644.81;;;7.97;91.71
34297;BME280;20564;42.902;25.336;2024-03-02T02:23:00;96654.28;;;7.89;92.43
34297;BME280;20564;42.902;25.336;2024-03-02T02:25:28;96647.00;;;7.92;92.81
34297;BME280;20564;42.902;25.336;2024-03-02T02:27:56;96649.06;;;7.98;92.13
34297;BME280;20564;42.902;25.336;2024-03-02T02:30:27;96655.81;;;7.91;92.69
34297;BME280;20564;42.902;25.336;2024-03-02T02:32:55;96652.09;;;7.94;93.09
34297;BME280;20564;42.902;25.336;2024-03-02T02:35:22;96650.31;;;7.94;93.09
34297;BME280;20564;42.902;25.336;2024-03-02T02:37:52;96650.84;;;7.79;93.75
34297;BME280;20564;42.902;25.336;2024-03-02T02:40:20;96650.16;;;7.77;94.18
34297;BME280;20564;42.902;25.336;2024-03-02T02:42:47;96649.59;;;7.73;94.31
34297;BME280;20564;42.902;25.336;2024-03-02T02:45:14;96650.16;;;7.77;94.06
34297;BME280;20564;42.902;25.336;2024-03-02T02:47:42;96653.34;;;7.80;93.51
34297;BME280;20564;42.902;25.336;2024-03-02T02:50:10;96657.03;;;7.78;94.03
34297;BME280;20564;42.902;25.336;2024-03-02T02:52:38;96655.09;;;7.70;94.35
34297;BME280;20564;42.902;25.336;2024-03-02T02:55:09;96654.00;;;7.63;94.67
34297;BME280;20564;42.902;25.336;2024-03-02T02:57:37;96651.41;;;7.72;94.45
34297;BME280;20564;42.902;25.336;2024-03-02T03:00:14;96657.88;;;7.78;93.97
34297;BME280;20564;42.902;25.336;2024-03-02T03:02:45;96654.28;;;7.69;94.56
34297;BME280;20564;42.902;25.336;2024-03-02T03:05:14;96650.41;;;7.73;94.04
34297;BME280;20564;42.902;25.336;2024-03-02T03:07:44;96644.66;;;7.80;93.93
34297;BME280;20564;42.902;25.336;2024-03-02T03:10:12;96641.03;;;7.71;93.94
34297;BME280;20564;42.902;25.336;2024-03-02T03:12:41;96647.94;;;7.72;93.87
34297;BME280;20564;42.902;25.336;2024-03-02T03:15:10;96649.44;;;7.74;94.27
34297;BME280;20564;42.902;25.336;2024-03-02T03:17:41;96655.13;;;7.80;93.46
34297;BME280;20564;42.902;25.336;2024-03-02T03:20:08;96644.09;;;7.76;93.06
34297;BME280;20564;42.902;25.336;2024-03-02T03:22:39;96656.75;;;7.71;93.79
34297;BME280;20564;42.902;25.336;2024-03-02T03:25:06;96657.59;;;7.71;93.48
34297;BME280;20564;42.902;25.336;2024-03-02T03:27:35;96657.59;;;7.71;93.89
34297;BME280;20564;42.902;25.336;2024-03-02T03:30:03;96657.03;;;7.78;93.99
34297;BME280;20564;42.902;25.336;2024-03-02T03:32:30;96669.59;;;7.74;94.25
34297;BME280;20564;42.902;25.336;2024-03-02T03:34:57;96669.03;;;7.70;94.49
34297;BME280;20564;42.902;25.336;2024-03-02T03:37:24;96662.44;;;7.76;93.52
34297;BME280;20564;42.902;25.336;2024-03-02T03:39:53;96674.63;;;7.56;94.95
34297;BME280;20564;42.902;25.336;2024-03-02T03:42:20;96666.41;;;7.61;95.69
34297;BME280;20564;42.902;25.336;2024-03-02T03:44:47;96674.78;;;7.55;96.10
34297;BME280;20564;42.902;25.336;2024-03-02T03:47:14;96676.69;;;7.53;96.46
34297;BME280;20564;42.902;25.336;2024-03-02T03:49:42;96676.31;;;7.57;96.57
34297;BME280;20564;42.902;25.336;2024-03-02T03:52:09;96685.00;;;7.58;96.06
34297;BME280;20564;42.902;25.336;2024-03-02T03:54:36;96666.78;;;7.56;96.29
34297;BME280;20564;42.902;25.336;2024-03-02T03:57:05;96677.66;;;7.52;96.18
34297;BME280;20564;42.902;25.336;2024-03-02T03:59:32;96681.53;;;7.47;97.05
34297;BME280;20564;42.902;25.336;2024-03-02T04:01:59;96666.91;;;7.45;97.37
34297;BME280;20564;42.902;25.336;2024-03-02T04:04:26;96675.16;;;7.40;96.68
34297;BME280;20564;42.902;25.336;2024-03-02T04:06:53;96679.00;;;7.36;97.35
34297;BME280;20564;42.902;25.336;2024-03-02T04:09:21;96671.31;;;7.44;98.13
34297;BME280;20564;42.902;25.336;2024-03-02T04:11:48;96663.97;;;7.38;98.17
34297;BME280;20564;42.902;25.336;2024-03-02T04:14:15;96671.69;;;7.30;99.37
34297;BME280;20564;42.902;25.336;2024-03-02T04:16:42;96671.69;;;7.30;99.20
34297;BME280;20564;42.902;25.336;2024-03-02T04:19:09;96668.38;;;7.38;99.37
34297;BME280;20564;42.902;25.336;2024-03-02T04:21:36;96663.03;;;7.39;99.37
34297;BME280;20564;42.902;25.336;2024-03-02T04:24:04;96666.34;;;7.41;99.39
34297;BME280;20564;42.902;25.336;2024-03-02T04:26:31;96659.44;;;7.40;99.12
34297;BME280;20564;42.902;25.336;2024-03-02T04:28:58;96664.00;;;7.48;98.65
34297;BME280;20564;42.902;25.336;2024-03-02T04:31:25;96661.97;;;7.52;97.99
34297;BME280;20564;42.902;25.336;2024-03-02T04:33:52;96667.19;;;7.52;98.17
34297;BME280;20564;42.902;25.336;2024-03-02T04:36:20;96665.09;;;7.45;98.71
34297;BME280;20564;42.902;25.336;2024-03-02T04:38:50;96671.31;;;7.44;98.79
34297;BME280;20564;42.902;25.336;2024-03-02T04:41:17;96666.06;;;7.44;99.19
34297;BME280;20564;42.902;25.336;2024-03-02T04:43:44;96667.75;;;7.55;98.25
34297;BME280;20564;42.902;25.336;2024-03-02T04:46:11;96674.78;;;7.55;97.94
34297;BME280;20564;42.902;25.336;2024-03-02T04:48:38;96673.66;;;7.47;98.09
34297;BME280;20564;42.902;25.336;2024-03-02T04:51:05;96684.84;;;7.59;97.77
34297;BME280;20564;42.902;25.336;2024-03-02T04:53:32;96687.31;;;7.51;98.12
34297;BME280;20564;42.902;25.336;2024-03-02T04:55:59;96677.94;;;7.48;97.62
34297;BME280;20564;42.902;25.336;2024-03-02T04:58:45;96681.25;;;7.60;97.74
34297;BME280;20564;42.902;25.336;2024-03-02T05:01:11;96682.91;;;7.52;97.91
34297;BME280;20564;42.902;25.336;2024-03-02T05:03:39;96679.56;;;7.40;98.21
34297;BME280;20564;42.902;25.336;2024-03-02T05:06:06;96684.50;;;7.33;98.96
34297;BME280;20564;42.902;25.336;2024-03-02T05:08:33;96682.84;;;7.32;99.37
34297;BME280;20564;42.902;25.336;2024-03-02T05:11:00;96681.75;;;7.35;99.74
34297;BME280;20564;42.902;25.336;2024-03-02T05:13:47;96678.75;;;7.39;100.00
34297;BME280;20564;42.902;25.336;2024-03-02T05:16:14;96681.09;;;7.42;100.00
34297;BME280;20564;42.902;25.336;2024-03-02T05:18:41;96673.09;;;7.44;100.00
34297;BME280;20564;42.902;25.336;2024-03-02T05:21:08;96677.41;;;7.55;99.03
34297;BME280;20564;42.902;25.336;2024-03-02T05:23:35;96681.25;;;7.51;99.07
34297;BME280;20564;42.902;25.336;2024-03-02T05:26:02;96673.94;;;7.44;99.78
34297;BME280;20564;42.902;25.336;2024-03-02T05:28:30;96681.56;;;7.57;99.56
34297;BME280;20564;42.902;25.336;2024-03-02T05:31:05;96678.78;;;7.59;99.17
34297;BME280;20564;42.902;25.336;2024-03-02T05:33:39;96685.69;;;7.60;99.56
34297;BME280;20564;42.902;25.336;2024-03-02T05:36:07;96685.69;;;7.60;99.77
34297;BME280;20564;42.902;25.336;2024-03-02T05:38:37;96681.28;;;7.70;98.81
34297;BME280;20564;42.902;25.336;2024-03-02T05:41:04;96678.53;;;7.62;99.67
34297;BME280;20564;42.902;25.336;2024-03-02T05:43:31;96687.91;;;7.64;100.00
34297;BME280;20564;42.902;25.336;2024-03-02T05:45:59;96682.94;;;7.71;100.00
34297;BME280;20564;42.902;25.336;2024-03-02T05:48:26;96687.25;;;7.72;99.98
34297;BME280;20564;42.902;25.336;2024-03-02T05:50:53;96683.81;;;7.71;99.84
34297;BME280;20564;42.902;25.336;2024-03-02T05:53:19;96675.78;;;7.73;100.00
34297;BME280;20564;42.902;25.336;2024-03-02T05:55:46;96684.31;;;7.75;99.90
34297;BME280;20564;42.902;25.336;2024-03-02T05:58:20;96693.44;;;7.81;100.00
34297;BME280;20564;42.902;25.336;2024-03-02T06:01:05;96697.34;;;7.86;100.00
34297;BME280;20564;42.902;25.336;2024-03-02T06:03:32;96702.72;;;7.94;100.00
34297;BME280;20564;42.902;25.336;2024-03-02T06:06:00;96702.16;;;8.01;99.96
34297;BME280;20564;42.902;25.336;2024-03-02T06:08:27;96700.66;;;8.08;98.90
34297;BME280;20564;42.902;25.336;2024-03-02T06:10:53;96701.75;;;8.15;98.43
34297;BME280;20564;42.902;25.336;2024-03-02T06:13:20;96697.63;;;8.22;97.86
34297;BME280;20564;42.902;25.336;2024-03-02T06:15:48;96707.56;;;8.28;96.44
34297;BME280;20564;42.902;25.336;2024-03-02T06:18:15;96696.38;;;8.26;96.42
34297;BME280;20564;42.902;25.336;2024-03-02T06:20:44;96698.72;;;8.29;96.51
34297;BME280;20564;42.902;25.336;2024-03-02T06:23:10;96699.84;;;8.36;96.73
34297;BME280;20564;42.902;25.336;2024-03-02T06:25:37;96702.63;;;8.44;96.54
34297;BME280;20564;42.902;25.336;2024-03-02T06:28:04;96703.06;;;8.50;95.18
34297;BME280;20564;42.902;25.336;2024-03-02T06:30:31;96698.19;;;8.55;94.75
34297;BME280;20564;42.902;25.336;2024-03-02T06:32:58;96703.88;;;8.60;94.81
34297;BME280;20564;42.902;25.336;2024-03-02T06:35:25;96703.59;;;8.63;94.59
34297;BME280;20564;42.902;25.336;2024-03-02T06:37:51;96692.53;;;8.69;94.09
34297;BME280;20564;42.902;25.336;2024-03-02T06:40:18;96694.59;;;8.75;94.04
34297;BME280;20564;42.902;25.336;2024-03-02T06:42:45;96696.34;;;8.84;94.44
34297;BME280;20564;42.902;25.336;2024-03-02T06:45:12;96704.53;;;8.81;94.59
34297;BME280;20564;42.902;25.336;2024-03-02T06:47:39;96700.66;;;8.85;94.77
34297;BME280;20564;42.902;25.336;2024-03-02T06:50:07;96702.84;;;8.90;95.17
34297;BME280;20564;42.902;25.336;2024-03-02T06:52:34;96704.06;;;8.96;94.95
34297;BME280;20564;42.902;25.336;2024-03-02T06:55:02;96706.41;;;8.99;94.73
34297;BME280;20564;42.902;25.336;2024-03-02T06:57:31;96714.97;;;9.01;95.18
34297;BME280;20564;42.902;25.336;2024-03-02T06:59:57;96716.91;;;9.08;94.67
34297;BME280;20564;42.902;25.336;2024-03-02T07:02:25;96720.06;;;9.12;94.75
34297;BME280;20564;42.902;25.336;2024-03-02T07:04:53;96717.72;;;9.09;94.67
34297;BME280;20564;42.902;25.336;2024-03-02T07:19:09;96705.25;;;10.21;88.38
34297;BME280;20564;42.902;25.336;2024-03-02T07:21:37;96713.38;;;10.10;88.70
34297;BME280;20564;42.902;25.336;2024-03-02T07:24:04;96715.91;;;10.02;89.12
34297;BME280;20564;42.902;25.336;2024-03-02T07:26:32;96722.59;;;9.96;88.80
34297;BME280;20564;42.902;25.336;2024-03-02T07:29:02;96725.47;;;9.75;89.58
34297;BME280;20564;42.902;25.336;2024-03-02T07:31:29;96732.16;;;9.70;90.32
34297;BME280;20564;42.902;25.336;2024-03-02T07:33:56;96728.00;;;9.67;91.70
34297;BME280;20564;42.902;25.336;2024-03-02T07:36:23;96738.25;;;9.60;92.02
34297;BME280;20564;42.902;25.336;2024-03-02T07:38:50;96737.00;;;9.64;91.45
34297;BME280;20564;42.902;25.336;2024-03-02T07:41:17;96733.28;;;9.57;91.79
34297;BME280;20564;42.902;25.336;2024-03-02T07:43:44;96741.06;;;9.49;92.30
34297;BME280;20564;42.902;25.336;2024-03-02T07:46:11;96741.91;;;9.50;92.69
34297;BME280;20564;42.902;25.336;2024-03-02T07:48:38;96737.34;;;9.52;93.40
34297;BME280;20564;42.902;25.336;2024-03-02T07:51:05;96744.63;;;9.58;92.80
34297;BME280;20564;42.902;25.336;2024-03-02T07:53:32;96756.53;;;9.62;93.07
34297;BME280;20564;42.902;25.336;2024-03-02T07:55:59;96737.44;;;9.60;92.27
34297;BME280;20564;42.902;25.336;2024-03-02T07:58:29;96746.56;;;9.65;92.25
34297;BME280;20564;42.902;25.336;2024-03-02T08:00:57;96745.81;;;9.73;91.67
34297;BME280;20564;42.902;25.336;2024-03-02T08:03:24;96742.31;;;9.82;91.48
34297;BME280;20564;42.902;25.336;2024-03-02T08:05:52;96736.47;;;9.88;91.21
34297;BME280;20564;42.902;25.336;2024-03-02T08:08:19;96741.66;;;9.80;91.99
34297;BME280;20564;42.902;25.336;2024-03-02T08:10:46;96733.44;;;9.83;90.97
34297;BME280;20564;42.902;25.336;2024-03-02T08:13:13;96733.16;;;9.86;90.80
34297;BME280;20564;42.902;25.336;2024-03-02T08:15:40;96734.50;;;9.90;90.81
34297;BME280;20564;42.902;25.336;2024-03-02T08:18:08;96721.91;;;9.94;90.07
34297;BME280;20564;42.902;25.336;2024-03-02T08:20:35;96727.69;;;9.98;89.60
34297;BME280;20564;42.902;25.336;2024-03-02T08:23:02;96735.81;;;10.04;89.47
34297;BME280;20564;42.902;25.336;2024-03-02T08:25:29;96739.66;;;10.10;89.57
34297;BME280;20564;42.902;25.336;2024-03-02T08:27:56;96748.16;;;10.04;89.69
34297;BME280;20564;42.902;25.336;2024-03-02T08:30:24;96741.25;;;10.03;90.24
34297;BME280;20564;42.902;25.336;2024-03-02T08:32:51;96747.78;;;9.99;91.32
34297;BME280;20564;42.902;25.336;2024-03-02T08:35:18;96759.34;;;10.06;89.98
34297;BME280;20564;42.902;25.336;2024-03-02T08:37:44;96762.94;;;10.05;89.72
34297;BME280;20564;42.902;25.336;2024-03-02T08:40:12;96754.13;;;9.96;91.10
34297;BME280;20564;42.902;25.336;2024-03-02T08:42:43;96750.41;;;9.99;91.03
34297;BME280;20564;42.902;25.336;2024-03-02T08:45:10;96741.31;;;10.11;90.42
34297;BME280;20564;42.902;25.336;2024-03-02T08:47:38;96742.66;;;10.15;90.24
34297;BME280;20564;42.902;25.336;2024-03-02T08:50:05;96741.50;;;10.27;89.22
34297;BME280;20564;42.902;25.336;2024-03-02T08:52:32;96742.75;;;10.23;89.33
34297;BME280;20564;42.902;25.336;2024-03-02T08:55:00;96736.78;;;10.31;88.01
34297;BME280;20564;42.902;25.336;2024-03-02T08:57:27;96738.34;;;10.42;87.42
34297;BME280;20564;42.902;25.336;2024-03-02T08:59:53;96730.22;;;10.53;87.47
34297;BME280;20564;42.902;25.336;2024-03-02T09:02:20;96742.19;;;10.65;86.34
34297;BME280;20564;42.902;25.336;2024-03-02T09:04:48;96734.59;;;10.62;85.73
34297;BME280;20564;42.902;25.336;2024-03-02T09:07:15;96739.31;;;10.76;85.64
34297;BME280;20564;42.902;25.336;2024-03-02T09:09:42;96727.50;;;10.80;85.01
34297;BME280;20564;42.902;25.336;2024-03-02T09:12:09;96748.28;;;10.83;85.12
34297;BME280;20564;42.902;25.336;2024-03-02T09:14:37;96734.69;;;10.96;84.45
34297;BME280;20564;42.902;25.336;2024-03-02T09:17:07;96737.13;;;10.90;85.11
34297;BME280;20564;42.902;25.336;2024-03-02T09:19:37;96742.41;;;10.90;84.29
34297;BME280;20564;42.902;25.336;2024-03-02T09:22:05;96748.69;;;10.97;84.71
34297;BME280;20564;42.902;25.336;2024-03-02T09:24:32;96758.31;;;11.06;83.73
34297;BME280;20564;42.902;25.336;2024-03-02T09:27:02;96743.53;;;11.13;83.61
34297;BME280;20564;42.902;25.336;2024-03-02T09:29:29;96735.09;;;11.27;82.47
34297;BME280;20564;42.902;25.336;2024-03-02T09:31:56;96729.69;;;11.37;81.82
34297;BME280;20564;42.902;25.336;2024-03-02T09:34:23;96724.69;;;11.52;81.86
34297;BME280;20564;42.902;25.336;2024-03-02T09:36:51;96730.28;;;11.57;81.86
34297;BME280;20564;42.902;25.336;2024-03-02T09:39:19;96733.63;;;11.59;80.79
34297;BME280;20564;42.902;25.336;2024-03-02T09:41:47;96712.84;;;11.56;81.51
34297;BME280;20564;42.902;25.336;2024-03-02T09:44:14;96712.00;;;11.55;81.14
34297;BME280;20564;42.902;25.336;2024-03-02T09:46:41;96713.00;;;11.63;81.25
34297;BME280;20564;42.902;25.336;2024-03-02T09:49:11;96713.84;;;11.63;80.73
34297;BME280;20564;42.902;25.336;2024-03-02T09:51:38;96712.25;;;11.70;80.30
34297;BME280;20564;42.902;25.336;2024-03-02T09:54:07;96705.97;;;11.71;80.43
34297;BME280;20564;42.902;25.336;2024-03-02T09:56:47;96712.25;;;11.78;79.82
34297;BME280;20564;42.902;25.336;2024-03-02T09:59:14;96702.03;;;11.75;80.84
34297;BME280;20564;42.902;25.336;2024-03-02T10:04:29;96722.00;;;11.78;79.68
34297;BME280;20564;42.902;25.336;2024-03-02T10:07:17;96738.22;;;11.65;80.75
34297;BME280;20564;42.902;25.336;2024-03-02T10:09:46;96744.50;;;11.64;80.65
34297;BME280;20564;42.902;25.336;2024-03-02T10:12:15;96729.53;;;11.73;81.42
34297;BME280;20564;42.902;25.336;2024-03-02T10:14:43;96713.09;;;11.79;81.07
34297;BME280;20564;42.902;25.336;2024-03-02T10:17:13;96719.59;;;11.93;79.25
34297;BME280;20564;42.902;25.336;2024-03-02T10:19:42;96713.16;;;11.95;78.97
34297;BME280;20564;42.902;25.336;2024-03-02T10:22:10;96700.66;;;11.97;79.14
34297;BME280;20564;42.902;25.336;2024-03-02T10:24:43;96674.78;;;12.01;78.52
34297;BME280;20564;42.902;25.336;2024-03-02T10:27:16;96684.69;;;12.07;78.64
34297;BME280;20564;42.902;25.336;2024-03-02T10:29:47;96671.50;;;12.07;79.20
34297;BME280;20564;42.902;25.336;2024-03-02T10:32:15;96672.00;;;12.19;78.43
34297;BME280;20564;42.902;25.336;2024-03-02T10:34:44;96651.06;;;12.25;77.04
34297;BME280;20564;42.902;25.336;2024-03-02T10:37:12;96687.34;;;12.23;78.02
34297;BME280;20564;42.902;25.336;2024-03-02T10:39:40;96702.53;;;12.21;77.88
34297;BME280;20564;42.902;25.336;2024-03-02T10:42:08;96707.81;;;12.21;78.02
34297;BME280;20564;42.902;25.336;2024-03-02T10:44:35;96710.59;;;12.20;77.34
34297;BME280;20564;42.902;25.336;2024-03-02T10:47:04;96707.94;;;12.12;78.19
34297;BME280;20564;42.902;25.336;2024-03-02T10:49:32;96703.16;;;12.15;77.76
34297;BME280;20564;42.902;25.336;2024-03-02T10:51:59;96701.19;;;12.17;77.78
34297;BME280;20564;42.902;25.336;2024-03-02T10:54:27;96710.25;;;12.15;77.89
34297;BME280;20564;42.902;25.336;2024-03-02T10:56:59;96722.13;;;12.11;78.47
34297;BME280;20564;42.902;25.336;2024-03-02T10:59:37;96726.03;;;12.06;78.25
34297;BME280;20564;42.902;25.336;2024-03-02T11:02:06;96728.22;;;12.11;77.66
34297;BME280;20564;42.902;25.336;2024-03-02T11:04:35;96718.34;;;12.21;78.11
34297;BME280;20564;42.902;25.336;2024-03-02T11:07:09;96710.59;;;12.28;77.34
34297;BME280;20564;42.902;25.336;2024-03-02T11:09:41;96718.69;;;12.35;77.89
34297;BME280;20564;42.902;25.336;2024-03-02T11:12:12;96718.06;;;12.41;77.16
34297;BME280;20564;42.902;25.336;2024-03-02T11:14:43;96704.53;;;12.52;75.89
34297;BME280;20564;42.902;25.336;2024-03-02T11:17:12;96698.44;;;12.60;76.30
34297;BME280;20564;42.902;25.336;2024-03-02T11:19:40;96712.13;;;12.63;75.96
34297;BME280;20564;42.902;25.336;2024-03-02T11:22:09;96710.66;;;12.69;75.55
34297;BME280;20564;42.902;25.336;2024-03-02T11:24:36;96705.00;;;12.72;75.38
34297;BME280;20564;42.902;25.336;2024-03-02T11:27:05;96709.66;;;12.62;75.78
34297;BME280;20564;42.902;25.336;2024-03-02T11:29:42;96711.13;;;12.56;76.67
34297;BME280;20564;42.902;25.336;2024-03-02T11:32:21;96717.09;;;12.58;76.48
34297;BME280;20564;42.902;25.336;2024-03-02T11:34:50;96723.00;;;12.44;76.69
34297;BME280;20564;42.902;25.336;2024-03-02T11:37:19;96716.06;;;12.35;76.44
34297;BME280;20564;42.902;25.336;2024-03-02T11:39:50;96718.06;;;12.41;77.39
34297;BME280;20564;42.902;25.336;2024-03-02T11:42:18;96717.88;;;12.42;77.76
34297;BME280;20564;42.902;25.336;2024-03-02T11:44:47;96709.50;;;12.47;77.54
34297;BME280;20564;42.902;25.336;2024-03-02T11:47:16;96704.69;;;12.42;77.68
34297;BME280;20564;42.902;25.336;2024-03-02T11:49:46;96710.13;;;12.33;76.80
34297;BME280;20564;42.902;25.336;2024-03-02T11:52:14;96709.78;;;12.36;77.38
34297;BME280;20564;42.902;25.336;2024-03-02T11:54:46;96711.59;;;12.27;77.31
34297;BME280;20564;42.902;25.336;2024-03-02T11:57:19;96711.59;;;12.27;77.36
34297;BME280;20564;42.902;25.336;2024-03-02T11:59:49;96700.84;;;12.20;76.49
34297;BME280;20564;42.902;25.336;2024-03-02T12:02:18;96703.81;;;12.17;76.90
34297;BME280;20564;42.902;25.336;2024-03-02T12:04:46;96696.22;;;12.06;76.53
34297;BME280;20564;42.902;25.336;2024-03-02T12:07:22;96717.66;;;12.03;77.17
34297;BME280;20564;42.902;25.336;2024-03-02T12:10:00;96716.28;;;11.91;78.32
34297;BME280;20564;42.902;25.336;2024-03-02T12:12:30;96721.50;;;11.82;78.32
34297;BME280;20564;42.902;25.336;2024-03-02T12:14:57;96726.75;;;11.74;78.96
34297;BME280;20564;42.902;25.336;2024-03-02T12:17:27;96725.72;;;11.67;78.64
34297;BME280;20564;42.902;25.336;2024-03-02T12:19:53;96723.06;;;11.59;79.00
34297;BME280;20564;42.902;25.336;2024-03-02T12:22:21;96727.81;;;11.55;78.75
34297;BME280;20564;42.902;25.336;2024-03-02T12:24:49;96736.97;;;11.43;79.69
34297;BME280;20564;42.902;25.336;2024-03-02T12:27:16;96737.91;;;11.34;80.01
34297;BME280;20564;42.902;25.336;2024-03-02T12:29:43;96736.00;;;11.18;79.96
34297;BME280;20564;42.902;25.336;2024-03-02T12:32:10;96745.75;;;11.00;82.05
34297;BME280;20564;42.902;25.336;2024-03-02T12:34:38;96745.44;;;11.03;82.64
34297;BME280;20564;42.902;25.336;2024-03-02T12:37:05;96738.16;;;10.97;82.52
34297;BME280;20564;42.902;25.336;2024-03-02T12:39:33;96735.84;;;10.94;82.89
34297;BME280;20564;42.902;25.336;2024-03-02T12:42:02;96740.13;;;10.95;83.66
34297;BME280;20564;42.902;25.336;2024-03-02T12:44:29;96738.78;;;10.91;82.46
34297;BME280;20564;42.902;25.336;2024-03-02T12:46:56;96748.97;;;10.68;82.97
34297;BME280;20564;42.902;25.336;2024-03-02T12:49:26;96751.69;;;10.58;85.36
34297;BME280;20564;42.902;25.336;2024-03-02T12:51:55;96762.50;;;10.55;85.02
34297;BME280;20564;42.902;25.336;2024-03-02T12:54:25;96766.25;;;10.52;85.44
34297;BME280;20564;42.902;25.336;2024-03-02T12:56:53;96753.63;;;10.38;85.26
34297;BME280;20564;42.902;25.336;2024-03-02T12:59:23;96755.88;;;10.33;86.71
34297;BME280;20564;42.902;25.336;2024-03-02T13:01:54;96755.34;;;10.29;86.86
34297;BME280;20564;42.902;25.336;2024-03-02T13:04:25;96766.97;;;10.27;86.61
34297;BME280;20564;42.902;25.336;2024-03-02T13:06:53;96768.34;;;10.31;87.29
34297;BME280;20564;42.902;25.336;2024-03-02T13:09:20;96775.50;;;10.38;86.45
34297;BME280;20564;42.902;25.336;2024-03-02T13:11:47;96773.84;;;10.37;86.06
34297;BME280;20564;42.902;25.336;2024-03-02T13:14:14;96773.53;;;10.41;86.72
34297;BME280;20564;42.902;25.336;2024-03-02T13:16:41;96773.25;;;10.44;85.40
34297;BME280;20564;42.902;25.336;2024-03-02T13:19:13;96769.25;;;10.40;84.82